Zaliv Amurskiy — D5MC6 — position and weather

sailwx.info

Track history (hours):
 
Tides and Currents Weather Stations Pressure Air Temp Water Temp Dewpoint Dewpoint Depression Visibility Wind Speed Wind Dir Waves Ship Positions

Zaliv Amurskiy

Last reported at 2017-Oct-15 07:07 UTC. Time now 2017-Nov-17 21:18 UTC.
Position S 32°47' E 152°47'.
Warning: this ship's position is 33 days out of date.

Length 244 m; draft 8.4 m.

Type: Tanker. MMSI: 636017658.

Date/timePositionNaut miles runAvg speedWind from/ knotsBaromVisibWave heightAir tempDewpointWater temp
2017-Oct-15 07:07S 32°47' E 152°47'112.3
2017-Oct-15 07:00S 32°48' E 152°46'712.3
2017-Oct-15 06:28S 32°53' E 152°41'612.2
2017-Oct-15 06:00S 32°57' E 152°37'1512.1
2017-Oct-15 04:45S 33°09' E 152°25'312.0
2017-Oct-15 04:30S 33°11' E 152°22'  
2017-Oct-12 21:56S 33°54' E 151°32'5512.5
2017-Oct-12 17:33S 33°14' E 152°18'113.2
2017-Oct-12 17:31S 33°14' E 152°19'1113.2
2017-Oct-12 16:41S 33°06' E 152°27'413.5
2017-Oct-12 16:24S 33°03' E 152°31'513.9
2017-Oct-12 16:00S 32°59' E 152°35'714.4
2017-Oct-12 15:30S 32°54' E 152°41'714.4
2017-Oct-12 15:01S 32°48' E 152°46'5013.5
2017-Oct-12 11:19S 32°08' E 153°21'412.1
2017-Oct-12 11:01S 32°05' E 153°23'611.8
2017-Oct-12 10:30S 31°59' E 153°26'  
Track history (hours):
 
Tides and Currents Weather Stations Pressure Air Temp Water Temp Dewpoint Dewpoint Depression Visibility Wind Speed Wind Dir Waves Ship Positions

Zaliv Amurskiy

Last reported at 2017-Oct-15 07:07 UTC. Time now 2017-Nov-17 21:18 UTC.
Position S 32°47' E 152°47'.
Warning: this ship's position is 33 days out of date.

Length 244 m; draft 8.4 m.

Type: Tanker. MMSI: 636017658.

Date/timePositionNaut miles runAvg speedWind from/ knotsBaromVisibWave heightAir tempDewpointWater temp
2017-Oct-15 07:07S 32°47' E 152°47'112.3
2017-Oct-15 07:00S 32°48' E 152°46'712.3
2017-Oct-15 06:28S 32°53' E 152°41'612.2
2017-Oct-15 06:00S 32°57' E 152°37'1512.1
2017-Oct-15 04:45S 33°09' E 152°25'312.0
2017-Oct-15 04:30S 33°11' E 152°22'  
2017-Oct-12 21:56S 33°54' E 151°32'5512.5
2017-Oct-12 17:33S 33°14' E 152°18'113.2
2017-Oct-12 17:31S 33°14' E 152°19'1113.2
2017-Oct-12 16:41S 33°06' E 152°27'413.5
2017-Oct-12 16:24S 33°03' E 152°31'513.9
2017-Oct-12 16:00S 32°59' E 152°35'714.4
2017-Oct-12 15:30S 32°54' E 152°41'714.4
2017-Oct-12 15:01S 32°48' E 152°46'5013.5
2017-Oct-12 11:19S 32°08' E 153°21'412.1
2017-Oct-12 11:01S 32°05' E 153°23'611.8
2017-Oct-12 10:30S 31°59' E 153°26'  

Dump ship's entire track history